createdAt,value
2018-08-10T00:00:18.713Z,0
2018-08-10T00:00:44.863Z,0
2018-08-10T00:01:11.003Z,0
2018-08-10T00:01:37.137Z,0
2018-08-10T00:02:03.266Z,0
2018-08-10T00:02:29.402Z,0
2018-08-10T00:02:55.534Z,0
2018-08-10T00:03:21.691Z,0
2018-08-10T00:03:47.831Z,0
2018-08-10T00:04:13.963Z,0
2018-08-10T00:04:40.096Z,0
2018-08-10T00:05:06.256Z,0
2018-08-10T00:05:32.389Z,0
2018-08-10T00:05:58.534Z,0
2018-08-10T00:06:24.662Z,0
2018-08-10T00:06:50.796Z,0
2018-08-10T00:07:16.931Z,0
2018-08-10T00:07:43.066Z,0
2018-08-10T00:08:09.226Z,0
2018-08-10T00:08:35.354Z,0
2018-08-10T00:09:01.487Z,0
2018-08-10T00:09:27.624Z,0
2018-08-10T00:09:53.757Z,0
2018-08-10T00:10:19.888Z,0
2018-08-10T00:10:46.027Z,0
2018-08-10T00:11:12.186Z,0
2018-08-10T00:11:38.317Z,0
2018-08-10T00:12:04.455Z,0
2018-08-10T00:12:30.621Z,0
2018-08-10T00:12:56.775Z,0
2018-08-10T00:13:22.935Z,0
2018-08-10T00:13:49.065Z,0
2018-08-10T00:14:15.215Z,0
2018-08-10T00:14:41.369Z,0
2018-08-10T00:15:07.511Z,0
2018-08-10T00:15:33.666Z,0
2018-08-10T00:15:59.830Z,0
2018-08-10T00:16:25.959Z,0
2018-08-10T00:16:52.096Z,0
2018-08-10T00:17:18.233Z,0
2018-08-10T00:17:44.392Z,0
2018-08-10T00:18:10.552Z,0
2018-08-10T00:18:36.693Z,0
2018-08-10T00:19:02.821Z,0
2018-08-10T00:19:58.778Z,0
2018-08-10T00:20:24.917Z,0
2018-08-10T00:20:51.050Z,0
2018-08-10T00:21:17.210Z,0
2018-08-10T00:21:43.349Z,0
2018-08-10T00:22:09.480Z,0
2018-08-10T00:22:35.614Z,0
2018-08-10T00:23:01.748Z,0
2018-08-10T00:23:27.885Z,0
2018-08-10T00:23:54.017Z,0
2018-08-10T00:24:20.171Z,0
2018-08-10T00:24:46.315Z,0
2018-08-10T00:25:12.449Z,0
2018-08-10T00:25:38.585Z,0
2018-08-10T00:26:04.747Z,0
2018-08-10T00:26:30.881Z,0
2018-08-10T00:26:57.019Z,0
2018-08-10T00:27:23.179Z,0
2018-08-10T00:27:49.313Z,0
2018-08-10T00:28:15.448Z,0
2018-08-10T00:28:41.584Z,0
2018-08-10T00:29:07.739Z,0
2018-08-10T00:29:33.881Z,0
2018-08-10T00:30:00.013Z,0
2018-08-10T00:30:26.151Z,0
2018-08-10T00:30:52.282Z,0
2018-08-10T00:31:18.419Z,0
2018-08-10T00:31:44.553Z,0
2018-08-10T00:32:10.698Z,0
2018-08-10T00:32:36.826Z,0
2018-08-10T00:33:02.964Z,0
2018-08-10T00:33:29.143Z,0
2018-08-10T00:33:55.299Z,0
2018-08-10T00:34:21.431Z,0
2018-08-10T00:34:47.571Z,0
2018-08-10T00:35:13.711Z,0
2018-08-10T00:35:39.842Z,0
2018-08-10T00:36:05.974Z,0
2018-08-10T00:36:32.106Z,0
2018-08-10T00:36:58.242Z,0
2018-08-10T00:37:24.381Z,0
2018-08-10T00:37:50.517Z,0
2018-08-10T00:38:16.650Z,0
2018-08-10T00:38:42.788Z,0
2018-08-10T00:39:08.915Z,0
2018-08-10T00:39:35.057Z,0
2018-08-10T00:40:01.246Z,0
2018-08-10T00:40:27.406Z,0
2018-08-10T00:40:53.551Z,0
2018-08-10T00:41:19.678Z,0
2018-08-10T00:41:45.811Z,0
2018-08-10T00:42:11.941Z,0
2018-08-10T00:42:38.077Z,0
2018-08-10T00:43:04.213Z,0
2018-08-10T00:43:30.355Z,0
2018-08-10T00:43:56.509Z,0
2018-08-10T00:44:22.645Z,0
2018-08-10T00:44:48.803Z,0
2018-08-10T00:45:14.946Z,0
2018-08-10T00:45:41.078Z,0
2018-08-10T00:46:07.206Z,0
2018-08-10T00:46:33.343Z,0
2018-08-10T00:46:59.482Z,0
2018-08-10T00:47:25.613Z,0
2018-08-10T00:47:51.754Z,0
2018-08-10T00:48:17.885Z,0
2018-08-10T00:48:44.052Z,0
2018-08-10T00:49:10.209Z,0
2018-08-10T00:49:36.349Z,0
2018-08-10T00:50:02.481Z,0
2018-08-10T00:50:28.644Z,0
2018-08-10T00:50:54.779Z,0
2018-08-10T00:51:20.932Z,0
2018-08-10T00:51:47.091Z,0
2018-08-10T00:52:13.235Z,0
2018-08-10T00:52:39.389Z,0
2018-08-10T00:53:05.529Z,0
2018-08-10T00:53:31.683Z,0
2018-08-10T00:53:57.819Z,0
2018-08-10T00:54:23.952Z,0
2018-08-10T00:54:50.091Z,0
2018-08-10T00:55:16.239Z,0
2018-08-10T00:55:42.355Z,0
2018-08-10T00:56:08.515Z,0
2018-08-10T00:56:34.653Z,0
2018-08-10T00:57:00.810Z,0
2018-08-10T00:57:26.945Z,0
2018-08-10T00:57:53.080Z,0
2018-08-10T00:58:19.215Z,0
2018-08-10T00:58:45.345Z,0
2018-08-10T00:59:11.482Z,0
2018-08-10T00:59:37.619Z,0
2018-08-10T01:00:03.758Z,0
2018-08-10T01:00:29.899Z,0
2018-08-10T01:00:56.035Z,0
2018-08-10T01:01:22.184Z,0
2018-08-10T01:01:48.317Z,0
2018-08-10T01:02:14.448Z,0
2018-08-10T01:02:40.584Z,0
2018-08-10T01:03:06.719Z,0
2018-08-10T01:03:32.885Z,0
2018-08-10T01:03:59.015Z,0
2018-08-10T01:04:25.164Z,0
2018-08-10T01:04:51.279Z,0
2018-08-10T01:05:17.496Z,0
2018-08-10T01:05:43.645Z,0
2018-08-10T01:06:09.801Z,0
2018-08-10T01:06:35.936Z,0
2018-08-10T01:07:02.056Z,0
2018-08-10T01:07:28.217Z,0
2018-08-10T01:07:54.378Z,0
2018-08-10T01:08:20.514Z,0
2018-08-10T01:08:46.651Z,0
2018-08-10T01:09:12.782Z,0
2018-08-10T01:09:38.918Z,0
2018-08-10T01:10:05.054Z,0
2018-08-10T01:10:31.195Z,0
2018-08-10T01:10:57.329Z,0
2018-08-10T01:11:23.469Z,0
2018-08-10T01:11:49.598Z,0
2018-08-10T01:12:15.788Z,0
2018-08-10T01:12:41.940Z,0
2018-08-10T01:13:08.091Z,0
2018-08-10T01:13:34.436Z,0
2018-08-10T01:14:00.371Z,0
2018-08-10T01:14:26.507Z,0
2018-08-10T01:14:52.641Z,0
2018-08-10T01:15:18.776Z,0
2018-08-10T01:15:44.935Z,0
2018-08-10T01:16:11.065Z,0
2018-08-10T01:16:37.203Z,0
2018-08-10T01:17:03.345Z,0
2018-08-10T01:17:29.479Z,0
2018-08-10T01:17:55.611Z,0
2018-08-10T01:18:21.750Z,0
2018-08-10T01:18:47.876Z,0
2018-08-10T01:19:14.073Z,0
2018-08-10T01:19:40.165Z,0
2018-08-10T01:20:06.301Z,0
2018-08-10T01:20:32.441Z,0
2018-08-10T01:20:58.575Z,0
2018-08-10T01:21:24.712Z,0
2018-08-10T01:21:50.844Z,0
2018-08-10T01:22:16.976Z,0
2018-08-10T01:22:43.133Z,0
2018-08-10T01:23:09.294Z,0
2018-08-10T01:23:35.427Z,0
2018-08-10T01:24:01.564Z,0
2018-08-10T01:24:27.694Z,0
2018-08-10T01:24:53.833Z,0
2018-08-10T01:25:19.969Z,0
2018-08-10T01:25:46.104Z,0
2018-08-10T01:26:12.239Z,0
2018-08-10T01:26:38.403Z,0
2018-08-10T01:27:04.530Z,0
2018-08-10T01:27:30.663Z,0
2018-08-10T01:27:56.802Z,0
2018-08-10T01:28:23.034Z,0
2018-08-10T01:28:49.202Z,0
2018-08-10T01:29:15.260Z,0
2018-08-10T01:29:41.402Z,0
2018-08-10T01:30:07.533Z,0
2018-08-10T01:30:33.673Z,0
2018-08-10T01:30:59.800Z,0
2018-08-10T01:31:25.935Z,0
2018-08-10T01:31:52.069Z,0
2018-08-10T01:32:18.205Z,0
2018-08-10T01:32:44.349Z,0
2018-08-10T01:33:10.534Z,0
2018-08-10T01:33:36.688Z,0
2018-08-10T01:34:02.823Z,0
2018-08-10T01:34:28.953Z,0
2018-08-10T01:34:55.112Z,0
2018-08-10T01:35:21.273Z,0
2018-08-10T01:35:47.408Z,0
2018-08-10T01:36:13.561Z,0
2018-08-10T01:36:39.691Z,0
2018-08-10T01:37:05.824Z,0
2018-08-10T01:37:31.961Z,0
2018-08-10T01:37:58.095Z,0
2018-08-10T01:38:24.231Z,0
2018-08-10T01:38:50.389Z,0
2018-08-10T01:39:16.532Z,0
2018-08-10T01:39:42.687Z,0
2018-08-10T01:40:08.820Z,0
2018-08-10T01:40:34.960Z,0
2018-08-10T01:41:01.108Z,0
2018-08-10T01:41:27.243Z,0
2018-08-10T01:41:53.382Z,0
2018-08-10T01:42:19.518Z,0
2018-08-10T01:42:45.658Z,0
2018-08-10T01:43:11.790Z,0
2018-08-10T01:43:37.927Z,0
2018-08-10T01:44:04.054Z,0
2018-08-10T01:44:30.215Z,0
2018-08-10T01:44:56.345Z,0
2018-08-10T01:45:22.521Z,0
2018-08-10T01:45:48.646Z,0
2018-08-10T01:46:14.789Z,0
2018-08-10T01:46:40.910Z,0
2018-08-10T01:47:07.075Z,0
2018-08-10T01:47:33.205Z,0
2018-08-10T01:47:59.338Z,0
2018-08-10T01:48:25.477Z,0
2018-08-10T01:48:51.640Z,0
2018-08-10T01:49:17.772Z,0
2018-08-10T01:49:43.904Z,0
2018-08-10T01:50:10.055Z,0
2018-08-10T01:50:36.206Z,0
2018-08-10T01:51:02.338Z,0
2018-08-10T01:51:28.472Z,0
2018-08-10T01:51:54.602Z,0
2018-08-10T01:52:20.756Z,0
2018-08-10T01:52:46.900Z,0
2018-08-10T01:53:13.037Z,0
2018-08-10T01:53:39.178Z,0
2018-08-10T01:54:05.311Z,0
2018-08-10T01:54:31.454Z,0
2018-08-10T01:54:57.590Z,0
2018-08-10T01:55:23.751Z,0
2018-08-10T01:55:49.884Z,0
2018-08-10T01:56:16.017Z,0
2018-08-10T01:56:42.146Z,0
2018-08-10T01:57:08.277Z,0
2018-08-10T01:57:34.408Z,0
2018-08-10T01:58:00.542Z,0
2018-08-10T01:58:26.682Z,0
2018-08-10T01:58:52.819Z,0
2018-08-10T01:59:18.960Z,0
2018-08-10T01:59:45.088Z,0
2018-08-10T02:00:11.225Z,0
2018-08-10T02:00:37.360Z,0
2018-08-10T02:01:03.496Z,0
2018-08-10T02:01:29.631Z,0
2018-08-10T02:01:55.763Z,0
2018-08-10T02:02:21.903Z,0
2018-08-10T02:02:48.037Z,0
2018-08-10T02:03:14.175Z,0
2018-08-10T02:03:40.305Z,0
2018-08-10T02:04:06.446Z,0
2018-08-10T02:04:32.583Z,0
2018-08-10T02:04:58.716Z,0
2018-08-10T02:05:24.854Z,0
2018-08-10T02:05:50.983Z,0
2018-08-10T02:06:17.120Z,0
2018-08-10T02:06:43.278Z,0
2018-08-10T02:07:09.412Z,0
2018-08-10T02:07:35.572Z,0
2018-08-10T02:08:01.705Z,0
2018-08-10T02:08:27.845Z,0
2018-08-10T02:08:53.988Z,0
2018-08-10T02:09:20.118Z,0
2018-08-10T02:09:46.244Z,0
2018-08-10T02:10:12.383Z,0
2018-08-10T02:10:38.516Z,0
2018-08-10T02:11:04.701Z,0
2018-08-10T02:11:30.834Z,0
2018-08-10T02:11:56.972Z,0
2018-08-10T02:12:23.108Z,0
2018-08-10T02:12:49.249Z,0
2018-08-10T02:13:15.399Z,0
2018-08-10T02:13:41.538Z,0
2018-08-10T02:14:07.674Z,0
2018-08-10T02:14:33.806Z,0
2018-08-10T02:14:59.966Z,0
2018-08-10T02:15:26.107Z,0
2018-08-10T02:15:52.244Z,0
2018-08-10T02:16:18.395Z,0
2018-08-10T02:16:44.558Z,0
2018-08-10T02:17:10.698Z,0
2018-08-10T02:17:36.857Z,0
2018-08-10T02:18:02.995Z,0
2018-08-10T02:18:29.141Z,0
2018-08-10T02:18:55.265Z,0
2018-08-10T02:19:21.409Z,0
2018-08-10T02:19:47.541Z,0
2018-08-10T02:20:13.670Z,0
2018-08-10T02:20:39.804Z,0
2018-08-10T02:21:05.941Z,0
2018-08-10T02:21:32.071Z,0
2018-08-10T02:21:58.210Z,0
2018-08-10T02:22:24.345Z,0
2018-08-10T02:22:50.497Z,0
2018-08-10T02:23:16.652Z,0
2018-08-10T02:23:42.787Z,0
2018-08-10T02:24:08.923Z,0
2018-08-10T02:24:35.113Z,0
2018-08-10T02:25:01.211Z,0
2018-08-10T02:25:27.343Z,0
2018-08-10T02:25:53.481Z,0
2018-08-10T02:26:19.614Z,0
2018-08-10T02:26:45.743Z,0
2018-08-10T02:27:11.871Z,0
2018-08-10T02:27:38.031Z,0
2018-08-10T02:28:04.157Z,0
2018-08-10T02:28:30.294Z,0
2018-08-10T02:28:56.427Z,0
2018-08-10T02:29:22.609Z,0
2018-08-10T02:29:48.740Z,0
2018-08-10T02:30:14.881Z,0
2018-08-10T02:30:41.058Z,0
2018-08-10T02:31:07.237Z,0
2018-08-10T02:31:33.371Z,0
2018-08-10T02:31:59.503Z,0
2018-08-10T02:32:25.662Z,0
2018-08-10T02:32:51.801Z,0
2018-08-10T02:33:17.937Z,0
2018-08-10T02:33:44.073Z,0
2018-08-10T02:34:10.312Z,0
2018-08-10T02:34:36.468Z,0
2018-08-10T02:35:02.630Z,0
2018-08-10T02:35:28.771Z,0
2018-08-10T02:35:54.930Z,0
2018-08-10T02:36:21.117Z,0
2018-08-10T02:36:47.298Z,0
2018-08-10T02:37:13.434Z,0
2018-08-10T02:37:39.569Z,0
2018-08-10T02:38:05.721Z,0
2018-08-10T02:38:31.858Z,0
2018-08-10T02:38:57.994Z,0
2018-08-10T02:39:24.148Z,0
2018-08-10T02:39:50.293Z,0
2018-08-10T02:40:16.477Z,0
2018-08-10T02:40:42.579Z,0
2018-08-10T02:41:08.747Z,0
2018-08-10T02:41:34.903Z,0
2018-08-10T02:42:01.081Z,0
2018-08-10T02:42:27.223Z,0
2018-08-10T02:42:53.392Z,0
2018-08-10T02:43:19.571Z,0
2018-08-10T02:43:45.710Z,0
2018-08-10T02:44:11.875Z,0
2018-08-10T02:44:38.061Z,0
2018-08-10T02:45:04.214Z,0
2018-08-10T02:45:30.372Z,0
2018-08-10T02:45:56.538Z,0
2018-08-10T02:46:22.688Z,0
2018-08-10T02:46:48.872Z,0
2018-08-10T02:47:15.004Z,0
2018-08-10T02:47:41.138Z,0
2018-08-10T02:48:07.291Z,0
2018-08-10T02:48:33.427Z,0
2018-08-10T02:48:59.585Z,0
2018-08-10T02:49:25.746Z,0
2018-08-10T02:49:51.932Z,0
2018-08-10T02:50:18.086Z,0
2018-08-10T02:50:44.224Z,0
2018-08-10T02:51:10.372Z,0
2018-08-10T02:51:36.526Z,0
2018-08-10T02:52:02.713Z,0
2018-08-10T02:52:28.845Z,0
2018-08-10T02:52:55.005Z,0
2018-08-10T02:53:21.138Z,0
2018-08-10T02:53:47.295Z,0
2018-08-10T02:54:13.452Z,0
2018-08-10T02:54:39.592Z,0
2018-08-10T02:55:05.725Z,0
2018-08-10T02:55:31.908Z,0
2018-08-10T02:55:58.070Z,0
2018-08-10T02:56:24.197Z,0
2018-08-10T02:56:50.335Z,0
2018-08-10T02:57:16.494Z,0
2018-08-10T02:57:42.635Z,0
2018-08-10T02:58:08.846Z,0
2018-08-10T02:58:35.005Z,0
2018-08-10T02:59:01.138Z,0
2018-08-10T02:59:27.303Z,0
2018-08-10T02:59:53.504Z,0
2018-08-10T03:00:19.672Z,0
2018-08-10T03:00:45.843Z,0
2018-08-10T03:01:11.973Z,0
2018-08-10T03:01:38.106Z,0
2018-08-10T03:02:04.268Z,0
2018-08-10T03:02:30.475Z,0
2018-08-10T03:02:56.653Z,0
2018-08-10T03:03:22.889Z,0
2018-08-10T03:03:49.066Z,0
2018-08-10T03:04:15.253Z,0
2018-08-10T03:04:41.435Z,0
2018-08-10T03:05:07.572Z,0
2018-08-10T03:05:33.773Z,0
2018-08-10T03:05:59.907Z,0
2018-08-10T03:06:26.129Z,0
2018-08-10T03:06:52.261Z,0
2018-08-10T03:07:18.416Z,0
2018-08-10T03:07:44.559Z,0
2018-08-10T03:08:10.708Z,0
2018-08-10T03:08:36.877Z,0
2018-08-10T03:09:03.009Z,0
2018-08-10T03:09:29.199Z,0
2018-08-10T03:09:55.376Z,0
2018-08-10T03:10:21.506Z,0
2018-08-10T03:10:47.682Z,0
2018-08-10T03:11:13.846Z,0
2018-08-10T03:11:40.031Z,0
2018-08-10T03:12:06.178Z,0
2018-08-10T03:12:32.307Z,0
2018-08-10T03:12:58.447Z,0
2018-08-10T03:13:24.645Z,0
2018-08-10T03:13:50.781Z,0
2018-08-10T03:14:16.914Z,0
2018-08-10T03:14:43.072Z,0
2018-08-10T03:15:09.204Z,0
2018-08-10T03:15:35.347Z,0
2018-08-10T03:16:01.500Z,0
2018-08-10T03:16:27.664Z,0
2018-08-10T03:16:53.772Z,0
2018-08-10T03:17:19.953Z,0
2018-08-10T03:17:46.127Z,0
2018-08-10T03:18:12.255Z,0
2018-08-10T03:18:38.416Z,0
2018-08-10T03:19:04.546Z,0
2018-08-10T03:19:30.698Z,0
2018-08-10T03:19:56.844Z,0
2018-08-10T03:20:22.976Z,0
2018-08-10T03:20:49.171Z,0
2018-08-10T03:21:15.287Z,0
2018-08-10T03:21:41.448Z,0
2018-08-10T03:22:07.714Z,0
2018-08-10T03:22:33.768Z,0
2018-08-10T03:22:59.880Z,0
2018-08-10T03:23:26.016Z,0
2018-08-10T03:23:52.152Z,0
2018-08-10T03:24:18.335Z,0
2018-08-10T03:24:44.467Z,0
2018-08-10T03:25:10.621Z,0
2018-08-10T03:25:36.778Z,0
2018-08-10T03:26:02.913Z,0
2018-08-10T03:26:29.097Z,0
2018-08-10T03:26:55.271Z,0
2018-08-10T03:27:21.433Z,0
2018-08-10T03:27:47.590Z,0
2018-08-10T03:28:13.720Z,0
2018-08-10T03:28:39.865Z,0
2018-08-10T03:29:05.994Z,0
2018-08-10T03:29:32.133Z,0
2018-08-10T03:29:58.264Z,0
2018-08-10T03:30:24.445Z,0
2018-08-10T03:30:50.574Z,0
2018-08-10T03:31:16.734Z,0
2018-08-10T03:31:42.912Z,0
2018-08-10T03:32:09.094Z,0
2018-08-10T03:32:35.252Z,0
2018-08-10T03:33:01.409Z,0
2018-08-10T03:33:27.540Z,0
2018-08-10T03:33:53.679Z,0
2018-08-10T03:34:19.846Z,4
2018-08-10T03:34:45.979Z,4
2018-08-10T03:35:12.107Z,4
2018-08-10T03:35:38.245Z,4
2018-08-10T03:36:04.383Z,0
2018-08-10T03:36:30.514Z,4
2018-08-10T03:36:56.650Z,8
2018-08-10T03:37:22.783Z,4
2018-08-10T03:37:48.938Z,8
2018-08-10T03:38:15.073Z,4
2018-08-10T03:38:41.229Z,8
2018-08-10T03:39:07.370Z,8
2018-08-10T03:39:33.500Z,8
2018-08-10T03:39:59.640Z,12
2018-08-10T03:40:25.777Z,12
2018-08-10T03:40:51.935Z,12
2018-08-10T03:41:18.062Z,12
2018-08-10T03:41:44.201Z,12
2018-08-10T03:42:10.333Z,16
2018-08-10T03:42:36.474Z,16
2018-08-10T03:43:02.626Z,20
2018-08-10T03:43:28.764Z,24
2018-08-10T03:43:54.894Z,24
2018-08-10T03:44:21.051Z,28
2018-08-10T03:44:47.192Z,32
2018-08-10T03:45:13.349Z,32
2018-08-10T03:45:39.512Z,32
2018-08-10T03:46:05.644Z,28
2018-08-10T03:46:31.776Z,36
2018-08-10T03:46:57.913Z,40
2018-08-10T03:47:24.073Z,40
2018-08-10T03:47:50.227Z,44
2018-08-10T03:48:16.361Z,48
2018-08-10T03:48:42.495Z,48
2018-08-10T03:49:08.625Z,52
2018-08-10T03:49:34.761Z,56
2018-08-10T03:50:00.912Z,56
2018-08-10T03:50:27.072Z,60
2018-08-10T03:50:53.205Z,68
2018-08-10T03:51:19.336Z,72
2018-08-10T03:51:45.475Z,76
2018-08-10T03:52:11.659Z,80
2018-08-10T03:52:37.790Z,84
2018-08-10T03:53:03.931Z,92
2018-08-10T03:53:30.088Z,96
2018-08-10T03:53:56.224Z,100
2018-08-10T03:54:22.371Z,100
2018-08-10T03:54:48.510Z,108
2018-08-10T03:55:14.647Z,108
2018-08-10T03:55:40.804Z,104
2018-08-10T03:56:06.937Z,108
2018-08-10T03:56:33.068Z,112
2018-08-10T03:56:59.216Z,108
2018-08-10T03:57:25.336Z,112
2018-08-10T03:57:51.469Z,120
2018-08-10T03:58:17.603Z,128
2018-08-10T03:58:43.736Z,136
2018-08-10T03:59:09.871Z,148
2018-08-10T03:59:36.004Z,152
2018-08-10T04:00:02.139Z,156
2018-08-10T04:00:28.264Z,164
2018-08-10T04:00:54.406Z,172
2018-08-10T04:01:20.542Z,176
2018-08-10T04:01:46.670Z,184
2018-08-10T04:02:12.837Z,196
2018-08-10T04:02:39.037Z,212
2018-08-10T04:03:05.168Z,228
2018-08-10T04:03:31.304Z,232
2018-08-10T04:03:57.440Z,240
2018-08-10T04:04:23.581Z,248
2018-08-10T04:04:49.713Z,264
2018-08-10T04:05:15.847Z,276
2018-08-10T04:05:41.982Z,288
2018-08-10T04:06:08.113Z,300
2018-08-10T04:06:34.249Z,312
2018-08-10T04:07:00.373Z,324
2018-08-10T04:07:26.527Z,336
2018-08-10T04:07:52.664Z,348
2018-08-10T04:08:18.790Z,356
2018-08-10T04:08:44.921Z,368
2018-08-10T04:09:11.046Z,392
2018-08-10T04:09:37.179Z,404
2018-08-10T04:10:03.337Z,412
2018-08-10T04:10:29.470Z,424
2018-08-10T04:10:55.601Z,428
2018-08-10T04:11:21.758Z,440
2018-08-10T04:11:47.908Z,456
2018-08-10T04:12:14.048Z,476
2018-08-10T04:12:40.181Z,484
2018-08-10T04:13:06.346Z,500
2018-08-10T04:13:32.482Z,516
2018-08-10T04:13:58.611Z,528
2018-08-10T04:14:24.747Z,544
2018-08-10T04:14:50.882Z,564
2018-08-10T04:15:17.068Z,588
2018-08-10T04:15:43.207Z,608
2018-08-10T04:16:09.411Z,616
2018-08-10T04:16:35.551Z,632
2018-08-10T04:17:01.677Z,652
2018-08-10T04:17:27.811Z,668
2018-08-10T04:17:53.947Z,688
2018-08-10T04:18:20.104Z,708
2018-08-10T04:18:46.235Z,724
2018-08-10T04:19:12.374Z,744
2018-08-10T04:19:38.507Z,764
2018-08-10T04:20:04.641Z,788
2018-08-10T04:20:30.777Z,812
2018-08-10T04:20:56.910Z,836
2018-08-10T04:21:23.047Z,860
2018-08-10T04:21:49.204Z,888
2018-08-10T04:22:15.335Z,912
2018-08-10T04:22:41.499Z,940
2018-08-10T04:23:07.658Z,968
2018-08-10T04:23:33.821Z,992
2018-08-10T04:23:59.998Z,1016
2018-08-10T04:24:26.136Z,1040
2018-08-10T04:24:52.261Z,1060
2018-08-10T04:25:18.400Z,1084
2018-08-10T04:25:44.527Z,1112
2018-08-10T04:26:10.670Z,1136
2018-08-10T04:26:36.812Z,1164
2018-08-10T04:27:02.944Z,1192
2018-08-10T04:27:29.102Z,1220
2018-08-10T04:27:55.236Z,1252
2018-08-10T04:28:21.372Z,1280
2018-08-10T04:28:47.529Z,1296
2018-08-10T04:29:13.665Z,1312
2018-08-10T04:29:39.858Z,1332
2018-08-10T04:30:05.958Z,1356
2018-08-10T04:30:32.095Z,1380
2018-08-10T04:30:58.231Z,1408
2018-08-10T04:31:24.367Z,1424
2018-08-10T04:31:50.493Z,1448
2018-08-10T04:32:16.631Z,1480
2018-08-10T04:32:42.786Z,1504
2018-08-10T04:33:08.919Z,1540
2018-08-10T04:33:35.048Z,1572
2018-08-10T04:34:01.183Z,1600
2018-08-10T04:34:27.309Z,1628
2018-08-10T04:34:53.462Z,1664
2018-08-10T04:35:19.601Z,1700
2018-08-10T04:35:45.738Z,1732
2018-08-10T04:36:11.873Z,1760
2018-08-10T04:36:38.002Z,1780
2018-08-10T04:37:04.143Z,1796
2018-08-10T04:37:30.292Z,1816
2018-08-10T04:37:56.424Z,1840
2018-08-10T04:38:22.598Z,1864
2018-08-10T04:38:48.717Z,1880
2018-08-10T04:39:14.856Z,1896
2018-08-10T04:39:40.988Z,1920
2018-08-10T04:40:07.127Z,1944
2018-08-10T04:40:33.279Z,1964
2018-08-10T04:40:59.440Z,1992
2018-08-10T04:41:25.569Z,2024
2018-08-10T04:41:51.697Z,2044
2018-08-10T04:42:17.860Z,2064
2018-08-10T04:42:44.015Z,2084
2018-08-10T04:43:10.151Z,2104
2018-08-10T04:43:36.284Z,2104
2018-08-10T04:44:02.434Z,2108
2018-08-10T04:44:28.576Z,2124
2018-08-10T04:44:54.699Z,2160
2018-08-10T04:45:20.838Z,2188
2018-08-10T04:45:46.978Z,2228
2018-08-10T04:46:13.129Z,2256
2018-08-10T04:46:39.264Z,2312
2018-08-10T04:47:05.397Z,2372
2018-08-10T04:47:31.522Z,2428
2018-08-10T04:47:57.654Z,2476
2018-08-10T04:48:23.810Z,2516
2018-08-10T04:48:49.946Z,2556
2018-08-10T04:49:16.085Z,2604
2018-08-10T04:49:42.233Z,2636
2018-08-10T04:50:08.371Z,2664
2018-08-10T04:50:34.503Z,2696
2018-08-10T04:51:00.677Z,2724
2018-08-10T04:51:26.861Z,2756
2018-08-10T04:51:52.999Z,2796
2018-08-10T04:52:19.149Z,2836
2018-08-10T04:52:45.306Z,2876
2018-08-10T04:53:11.441Z,2904
2018-08-10T04:53:37.595Z,2932
2018-08-10T04:54:03.727Z,2960
2018-08-10T04:54:29.872Z,2976
2018-08-10T04:54:56.046Z,2992
2018-08-10T04:55:22.220Z,3016
2018-08-10T04:55:48.332Z,3040
2018-08-10T04:56:14.461Z,3060
2018-08-10T04:56:40.598Z,3080
2018-08-10T04:57:06.737Z,3088
2018-08-10T04:57:32.869Z,3104
2018-08-10T04:57:59.002Z,3112
2018-08-10T04:58:25.137Z,3132
2018-08-10T04:58:51.260Z,3188
2018-08-10T04:59:17.404Z,3244
2018-08-10T04:59:43.537Z,3280
2018-08-10T05:00:09.723Z,3312
2018-08-10T05:00:35.839Z,3344
2018-08-10T05:01:01.995Z,3364
2018-08-10T05:01:28.126Z,3380
2018-08-10T05:01:54.285Z,3408
2018-08-10T05:02:20.412Z,3440
2018-08-10T05:02:46.545Z,3472
2018-08-10T05:03:12.714Z,3492
2018-08-10T05:03:38.899Z,3516
2018-08-10T05:04:04.980Z,3548
2018-08-10T05:04:31.112Z,3576
2018-08-10T05:04:57.253Z,3600
2018-08-10T05:05:23.384Z,3632
2018-08-10T05:05:49.521Z,3648
2018-08-10T05:06:15.701Z,3676
2018-08-10T05:06:41.842Z,3708
2018-08-10T05:07:07.995Z,3732
2018-08-10T05:07:34.129Z,3748
2018-08-10T05:08:00.259Z,3764
2018-08-10T05:08:26.399Z,3788
2018-08-10T05:08:52.537Z,3820
2018-08-10T05:09:18.668Z,3844
2018-08-10T05:09:44.835Z,3872
2018-08-10T05:10:10.943Z,3896
2018-08-10T05:10:37.072Z,3940
2018-08-10T05:11:03.213Z,3968
2018-08-10T05:11:29.348Z,4004
2018-08-10T05:11:55.482Z,4008
2018-08-10T05:12:21.634Z,4016
2018-08-10T05:12:47.767Z,4064
2018-08-10T05:13:13.906Z,4112
2018-08-10T05:13:40.092Z,4140
2018-08-10T05:14:06.227Z,4160
2018-08-10T05:14:32.361Z,4160
2018-08-10T05:14:58.519Z,4168
2018-08-10T05:15:24.653Z,4184
2018-08-10T05:15:50.874Z,4204
2018-08-10T05:16:16.919Z,4228
2018-08-10T05:16:43.048Z,4272
2018-08-10T05:17:09.203Z,4300
2018-08-10T05:17:35.347Z,4328
2018-08-10T05:18:01.478Z,4360
2018-08-10T05:18:27.636Z,4388
2018-08-10T05:18:53.788Z,4400
2018-08-10T05:19:19.931Z,4408
2018-08-10T05:19:46.091Z,4432
2018-08-10T05:20:12.222Z,4440
2018-08-10T05:20:38.354Z,4472
2018-08-10T05:21:04.493Z,4496
2018-08-10T05:21:30.629Z,4528
2018-08-10T05:21:56.837Z,4556
2018-08-10T05:22:23.020Z,4596
2018-08-10T05:22:49.135Z,4612
2018-08-10T05:23:15.280Z,4624
2018-08-10T05:23:41.417Z,4648
2018-08-10T05:24:07.559Z,4668
2018-08-10T05:24:33.711Z,4688
2018-08-10T05:24:59.871Z,4720
2018-08-10T05:25:26.019Z,4780
2018-08-10T05:25:52.182Z,4836
2018-08-10T05:26:18.300Z,4872
2018-08-10T05:26:44.434Z,4896
2018-08-10T05:27:10.574Z,4928
2018-08-10T05:27:36.711Z,4952
2018-08-10T05:28:02.879Z,4992
2018-08-10T05:28:29.027Z,5040
2018-08-10T05:28:55.181Z,5080
2018-08-10T05:29:21.316Z,5096
2018-08-10T05:29:47.444Z,5100
2018-08-10T05:30:13.585Z,5108
2018-08-10T05:30:39.781Z,5144
2018-08-10T05:31:05.881Z,5204
2018-08-10T05:31:32.011Z,5244
2018-08-10T05:31:58.174Z,5276
2018-08-10T05:32:24.314Z,5280
2018-08-10T05:32:50.447Z,5292
2018-08-10T05:33:16.580Z,5316
2018-08-10T05:33:42.766Z,5380
2018-08-10T05:34:08.870Z,5424
2018-08-10T05:34:35.001Z,5432
2018-08-10T05:35:01.189Z,5496
2018-08-10T05:35:27.344Z,5576
2018-08-10T05:35:53.479Z,5604
2018-08-10T05:36:19.657Z,5580
2018-08-10T05:36:45.847Z,5528
2018-08-10T05:37:11.994Z,5528
2018-08-10T05:37:38.136Z,5556
2018-08-10T05:38:04.292Z,5576
2018-08-10T05:38:30.430Z,5604
2018-08-10T05:38:56.559Z,5624
2018-08-10T05:39:22.692Z,5648
2018-08-10T05:39:48.827Z,5700
2018-08-10T05:40:14.990Z,5752
2018-08-10T05:40:41.123Z,5764
2018-08-10T05:41:07.284Z,5764
2018-08-10T05:41:33.435Z,5780
2018-08-10T05:41:59.564Z,5828
2018-08-10T05:42:25.702Z,5884
2018-08-10T05:42:51.839Z,5904
2018-08-10T05:43:17.990Z,5920
2018-08-10T05:43:44.127Z,5924
2018-08-10T05:44:10.391Z,5948
2018-08-10T05:44:36.409Z,5976
2018-08-10T05:45:02.573Z,6024
2018-08-10T05:45:28.704Z,6044
2018-08-10T05:45:54.834Z,6056
2018-08-10T05:46:21.007Z,6068
2018-08-10T05:46:47.154Z,6044
2018-08-10T05:47:13.323Z,6048
2018-08-10T05:47:39.430Z,6092
2018-08-10T05:48:05.702Z,6160
2018-08-10T05:48:31.725Z,6208
2018-08-10T05:48:57.854Z,6220
2018-08-10T05:49:23.994Z,6208
2018-08-10T05:49:50.176Z,6208
2018-08-10T05:50:16.304Z,6248
2018-08-10T05:50:42.444Z,6316
2018-08-10T05:51:08.588Z,6372
2018-08-10T05:51:34.716Z,6416
2018-08-10T05:52:00.842Z,6420
2018-08-10T05:52:27.076Z,6404
2018-08-10T05:52:53.152Z,6392
2018-08-10T05:53:19.302Z,6396
2018-08-10T05:53:45.439Z,6404
2018-08-10T05:54:11.572Z,6432
2018-08-10T05:54:37.707Z,6428
2018-08-10T05:55:03.840Z,6420
2018-08-10T05:55:29.984Z,6408
2018-08-10T05:55:56.136Z,6436
2018-08-10T05:56:22.307Z,6480
2018-08-10T05:56:48.460Z,6472
2018-08-10T05:57:14.590Z,6500
2018-08-10T05:57:40.772Z,6520
2018-08-10T05:58:06.930Z,6524
2018-08-10T05:58:33.067Z,6532
2018-08-10T05:58:59.212Z,6584
2018-08-10T05:59:25.404Z,6644
2018-08-10T05:59:51.523Z,6684
2018-08-10T06:00:17.703Z,6656
2018-08-10T06:00:43.977Z,6652
2018-08-10T06:01:10.089Z,6696
2018-08-10T06:01:36.247Z,6728
2018-08-10T06:02:02.410Z,6744
2018-08-10T06:02:28.618Z,6776
2018-08-10T06:02:54.800Z,6652
2018-08-10T06:03:21.221Z,6672
2018-08-10T06:03:47.391Z,6728
2018-08-10T06:04:13.462Z,6764
2018-08-10T06:04:39.593Z,6792
2018-08-10T06:05:05.736Z,6788
2018-08-10T06:05:31.896Z,6880
2018-08-10T06:05:58.032Z,6920
2018-08-10T06:06:24.168Z,6832
2018-08-10T06:06:50.319Z,6792
2018-08-10T06:07:16.450Z,6840
2018-08-10T06:07:42.592Z,6920
2018-08-10T06:08:08.752Z,6900
2018-08-10T06:08:34.885Z,6916
2018-08-10T06:09:01.020Z,6912
2018-08-10T06:09:27.157Z,6916
2018-08-10T06:09:53.294Z,6924
2018-08-10T06:10:19.450Z,6964
2018-08-10T06:10:45.594Z,6980
2018-08-10T06:11:11.758Z,6972
2018-08-10T06:11:37.885Z,7012
2018-08-10T06:12:04.025Z,7060
2018-08-10T06:12:30.178Z,7096